createdAt,value
2022-12-09T00:02:39.561Z,31.88
2022-12-09T00:05:41.519Z,34.75
2022-12-09T00:08:43.151Z,33.05
2022-12-09T00:11:44.576Z,30.13
2022-12-09T00:14:45.561Z,30.20
2022-12-09T00:17:46.893Z,30.25
2022-12-09T00:20:47.556Z,34.13
2022-12-09T00:23:50.318Z,30.83
2022-12-09T00:26:51.315Z,32.67
2022-12-09T00:29:52.656Z,37.28
2022-12-09T00:32:53.886Z,34.00
2022-12-09T00:35:55.122Z,34.08
2022-12-09T00:38:59.095Z,34.00
2022-12-09T00:42:00.106Z,37.55
2022-12-09T00:45:02.503Z,36.67
2022-12-09T00:48:04.005Z,38.65
2022-12-09T00:51:13.572Z,36.17
2022-12-09T00:54:15.040Z,44.50
2022-12-09T00:57:16.373Z,36.20
2022-12-09T01:00:18.331Z,39.00
2022-12-09T01:03:20.224Z,36.75
2022-12-09T01:06:25.564Z,42.38
2022-12-09T01:09:26.723Z,46.80
2022-12-09T01:12:27.724Z,45.35
2022-12-09T01:15:29.510Z,47.58
2022-12-09T01:18:31.065Z,45.60
2022-12-09T01:21:32.606Z,41.10
2022-12-09T01:24:33.718Z,45.53
2022-12-09T01:27:34.815Z,40.55
2022-12-09T01:30:35.453Z,50.65
2022-12-09T01:33:37.060Z,51.95
2022-12-09T01:36:37.925Z,49.78
2022-12-09T01:39:39.451Z,52.45
2022-12-09T01:42:41.066Z,50.85
2022-12-09T01:45:43.528Z,58.92
2022-12-09T01:48:47.343Z,52.75
2022-12-09T01:52:17.486Z,53.92
2022-12-09T01:55:19.679Z,51.47
2022-12-09T01:58:21.369Z,54.38
2022-12-09T02:01:26.217Z,51.17
2022-12-09T02:04:33.644Z,49.13
2022-12-09T02:07:35.492Z,60.38
2022-12-09T02:11:05.563Z,52.42
2022-12-09T02:14:27.867Z,60.47
2022-12-09T02:17:51.668Z,64.72
2022-12-09T02:21:12.432Z,55.22
2022-12-09T02:25:09.380Z,53.97
2022-12-09T02:28:27.242Z,54.92
2022-12-09T02:32:22.156Z,53.58
2022-12-09T02:35:35.326Z,57.83
2022-12-09T02:38:43.175Z,55.42
2022-12-09T02:41:49.584Z,59.33
2022-12-09T02:44:52.644Z,54.22
2022-12-09T02:48:01.361Z,53.90
2022-12-09T02:51:08.814Z,56.92
2022-12-09T02:54:17.727Z,52.17
2022-12-09T02:57:26.024Z,58.75
2022-12-09T03:00:28.982Z,62.97
2022-12-09T03:03:33.962Z,60.72
2022-12-09T03:06:46.801Z,59.20
2022-12-09T03:10:00.385Z,54.13
2022-12-09T03:13:14.140Z,51.80
2022-12-09T03:16:48.584Z,58.17
2022-12-09T03:19:59.602Z,62.42
2022-12-09T03:23:05.806Z,52.40
2022-12-09T03:26:07.425Z,60.03
2022-12-09T03:29:17.739Z,54.47
2022-12-09T03:32:25.411Z,53.13
2022-12-09T03:35:58.256Z,50.53
2022-12-09T03:39:02.203Z,54.33
2022-12-09T03:42:14.717Z,54.65
2022-12-09T03:45:19.780Z,54.45
2022-12-09T03:48:22.387Z,54.20
2022-12-09T03:52:17.336Z,57.28
2022-12-09T03:55:30.651Z,61.75
2022-12-09T03:58:35.879Z,50.50
2022-12-09T04:01:39.201Z,59.80
2022-12-09T04:04:42.692Z,54.40
2022-12-09T04:07:44.329Z,55.78
2022-12-09T04:10:47.017Z,65.13
2022-12-09T04:13:48.247Z,63.28
2022-12-09T04:16:49.154Z,62.28
2022-12-09T04:19:50.475Z,57.90
2022-12-09T04:22:51.668Z,63.65
2022-12-09T04:25:52.971Z,61.85
2022-12-09T04:28:54.355Z,64.40
2022-12-09T04:31:55.083Z,78.15
2022-12-09T04:34:56.700Z,64.90
2022-12-09T04:37:57.878Z,71.07
2022-12-09T04:41:01.003Z,63.83
2022-12-09T04:44:02.513Z,67.63
2022-12-09T04:47:04.676Z,66.93
2022-12-09T04:50:07.630Z,73.88
2022-12-09T04:53:09.033Z,63.40
2022-12-09T04:56:19.799Z,63.80
2022-12-09T04:59:21.072Z,66.18
2022-12-09T05:02:22.525Z,67.30
2022-12-09T05:05:23.630Z,59.85
2022-12-09T05:08:31.053Z,57.25
2022-12-09T05:11:33.010Z,67.88
2022-12-09T05:14:34.442Z,66.53
2022-12-09T05:17:35.769Z,61.05
2022-12-09T05:20:40.110Z,64.63
2022-12-09T05:23:41.756Z,67.32
2022-12-09T05:26:42.946Z,63.35
2022-12-09T05:29:43.853Z,68.40
2022-12-09T05:32:44.791Z,70.78
2022-12-09T05:35:52.689Z,68.78
2022-12-09T05:38:55.944Z,63.67
2022-12-09T05:41:57.187Z,63.53
2022-12-09T05:44:58.126Z,68.05
2022-12-09T05:47:59.143Z,67.30
2022-12-09T05:51:04.333Z,63.05
2022-12-09T05:54:07.316Z,63.47
2022-12-09T05:57:08.715Z,67.50
2022-12-09T06:00:10.992Z,69.80
2022-12-09T06:03:15.800Z,64.65
2022-12-09T06:06:20.763Z,65.10
2022-12-09T06:09:22.584Z,63.72
2022-12-09T06:12:23.930Z,63.97
2022-12-09T06:15:32.932Z,69.05
2022-12-09T06:18:35.351Z,64.70
2022-12-09T06:21:41.558Z,63.75
2022-12-09T06:24:42.825Z,66.18
2022-12-09T06:27:44.004Z,68.72
2022-12-09T06:30:45.342Z,67.72
2022-12-09T06:33:54.856Z,74.43
2022-12-09T06:36:57.808Z,178.20
2022-12-09T06:39:58.875Z,78.65
2022-12-09T06:43:00.296Z,83.35
2022-12-09T06:46:01.910Z,71.35
2022-12-09T06:49:03.586Z,75.28
2022-12-09T06:52:05.163Z,75.43
2022-12-09T06:55:09.109Z,84.68
2022-12-09T06:58:10.743Z,95.20
2022-12-09T07:01:26.096Z,87.35
2022-12-09T07:04:27.983Z,84.05
2022-12-09T07:07:29.306Z,89.75
2022-12-09T07:10:30.826Z,95.25
2022-12-09T07:13:32.557Z,91.55
2022-12-09T07:16:35.308Z,93.25
2022-12-09T07:19:36.341Z,89.25
2022-12-09T07:22:37.988Z,86.63
2022-12-09T07:25:39.576Z,90.30
2022-12-09T07:28:42.733Z,94.38
2022-12-09T07:31:45.311Z,89.35
2022-12-09T07:34:46.440Z,92.85
2022-12-09T07:37:47.552Z,85.10
2022-12-09T07:40:49.151Z,90.93
2022-12-09T07:43:50.439Z,86.15
2022-12-09T07:46:52.082Z,88.20
2022-12-09T07:49:53.519Z,91.35
2022-12-09T07:52:54.328Z,86.72
2022-12-09T07:55:56.659Z,84.60
2022-12-09T07:58:58.777Z,89.03
2022-12-09T08:02:05.707Z,86.80
2022-12-09T08:05:08.993Z,85.25
2022-12-09T08:08:10.940Z,81.40
2022-12-09T08:11:18.864Z,83.25
2022-12-09T08:14:21.017Z,81.60
2022-12-09T08:17:22.247Z,84.72
2022-12-09T08:20:28.768Z,80.78
2022-12-09T08:23:30.554Z,77.43
2022-12-09T08:26:32.774Z,82.15
2022-12-09T08:29:34.392Z,74.00
2022-12-09T08:32:35.997Z,78.68
2022-12-09T08:35:38.740Z,74.57
2022-12-09T08:38:40.111Z,76.53
2022-12-09T08:41:43.857Z,64.22
2022-12-09T08:44:45.333Z,68.35
2022-12-09T08:47:46.817Z,69.25
2022-12-09T08:50:48.138Z,64.57
2022-12-09T08:53:49.444Z,63.63
2022-12-09T08:56:55.258Z,74.07
2022-12-09T08:59:56.488Z,74.47
2022-12-09T09:02:57.409Z,68.32
2022-12-09T09:06:10.721Z,76.35
2022-12-09T09:09:14.247Z,69.43
2022-12-09T09:12:15.448Z,74.40
2022-12-09T09:15:17.583Z,66.55
2022-12-09T09:18:18.999Z,77.93
2022-12-09T09:21:24.975Z,75.63
2022-12-09T09:24:26.810Z,69.82
2022-12-09T09:27:28.373Z,71.82
2022-12-09T09:30:29.879Z,73.68
2022-12-09T09:33:31.553Z,75.13
2022-12-09T09:36:33.424Z,72.03
2022-12-09T09:39:34.794Z,72.22
2022-12-09T09:42:47.954Z,66.93
2022-12-09T09:45:51.569Z,67.90
2022-12-09T09:48:53.957Z,67.10
2022-12-09T09:51:57.019Z,61.85
2022-12-09T09:54:58.694Z,68.03
2022-12-09T09:58:20.603Z,62.78
2022-12-09T10:01:26.864Z,58.47
2022-12-09T10:04:33.772Z,58.83
2022-12-09T10:07:43.825Z,59.42
2022-12-09T10:11:27.052Z,56.83
2022-12-09T10:14:34.209Z,61.88
2022-12-09T10:18:09.570Z,66.00
2022-12-09T10:21:21.011Z,58.97
2022-12-09T10:24:39.180Z,57.78
2022-12-09T10:27:55.323Z,54.03
2022-12-09T10:30:57.707Z,58.80
2022-12-09T10:33:59.798Z,59.08
2022-12-09T10:37:01.239Z,53.65
2022-12-09T10:40:08.995Z,64.63
2022-12-09T10:43:41.222Z,52.45
2022-12-09T10:46:42.713Z,62.25
2022-12-09T10:49:44.222Z,62.08
2022-12-09T10:52:46.754Z,57.20
2022-12-09T10:55:54.811Z,61.47
2022-12-09T10:59:22.687Z,56.33
2022-12-09T11:02:24.768Z,56.75
2022-12-09T11:05:31.933Z,55.38
2022-12-09T11:08:35.247Z,50.47
2022-12-09T11:11:47.244Z,51.42
2022-12-09T11:14:56.244Z,47.10
2022-12-09T11:18:19.194Z,54.08
2022-12-09T11:21:37.217Z,49.50
2022-12-09T11:24:40.826Z,49.75
2022-12-09T11:27:49.481Z,48.95
2022-12-09T11:34:27.576Z,50.15
2022-12-09T11:37:32.412Z,46.83
2022-12-09T11:40:33.670Z,53.17
2022-12-09T11:43:54.119Z,47.40
2022-12-09T11:47:24.735Z,47.75
2022-12-09T11:50:33.304Z,49.67
2022-12-09T11:53:40.819Z,50.97
2022-12-09T11:56:43.552Z,48.70
2022-12-09T11:59:55.053Z,49.50
2022-12-09T12:03:17.989Z,45.13
2022-12-09T12:06:37.298Z,48.10
2022-12-09T12:09:47.769Z,49.40
2022-12-09T12:13:21.100Z,43.25
2022-12-09T12:17:22.855Z,41.75
2022-12-09T12:20:49.371Z,47.42
2022-12-09T12:24:13.347Z,45.92
2022-12-09T12:28:01.752Z,49.65
2022-12-09T12:31:24.354Z,46.92
2022-12-09T12:34:56.362Z,47.92
2022-12-09T12:38:20.118Z,45.90
2022-12-09T12:41:41.856Z,47.80
2022-12-09T12:45:32.273Z,46.33
2022-12-09T12:48:46.879Z,49.65
2022-12-09T12:52:16.643Z,43.80
2022-12-09T12:56:18.242Z,50.45
2022-12-09T13:00:07.469Z,44.38
2022-12-09T13:03:33.858Z,43.63
2022-12-09T13:07:07.704Z,34.42
2022-12-09T13:10:25.074Z,38.10
2022-12-09T13:13:35.114Z,41.20
2022-12-09T13:16:41.402Z,38.13
2022-12-09T13:19:50.082Z,40.60
2022-12-09T13:23:30.870Z,43.50
2022-12-09T13:26:50.990Z,41.35
2022-12-09T13:30:15.337Z,43.80
2022-12-09T13:33:49.727Z,38.70
2022-12-09T13:36:51.041Z,41.05
2022-12-09T13:39:51.963Z,38.70
2022-12-09T13:43:04.696Z,42.50
2022-12-09T13:46:05.668Z,40.97
2022-12-09T13:49:26.723Z,39.03
2022-12-09T13:52:53.790Z,39.70
2022-12-09T13:56:23.430Z,41.83
2022-12-09T13:59:44.723Z,47.85
2022-12-09T14:03:00.478Z,40.28
2022-12-09T14:06:18.366Z,41.60
2022-12-09T14:09:32.732Z,44.15
2022-12-09T14:12:33.749Z,42.03
2022-12-09T14:15:37.518Z,42.67
2022-12-09T14:18:40.222Z,53.15
2022-12-09T14:21:41.015Z,42.95
2022-12-09T14:24:42.348Z,48.72
2022-12-09T14:28:12.271Z,41.83
2022-12-09T14:31:45.200Z,46.78
2022-12-09T14:34:59.319Z,43.10
2022-12-09T14:38:17.419Z,45.63
2022-12-09T14:41:51.111Z,44.88
2022-12-09T14:45:24.150Z,45.70
2022-12-09T14:48:31.255Z,41.50
2022-12-09T14:51:49.481Z,48.38
2022-12-09T14:54:54.030Z,44.08
2022-12-09T14:58:00.117Z,46.10
2022-12-09T15:01:06.291Z,47.13
2022-12-09T15:04:07.566Z,38.53
2022-12-09T15:07:25.529Z,48.38
2022-12-09T15:10:36.521Z,45.38
2022-12-09T15:13:40.979Z,45.25
2022-12-09T15:16:47.700Z,49.17
2022-12-09T15:20:12.328Z,47.38
2022-12-09T15:23:27.548Z,51.50
2022-12-09T15:26:33.980Z,44.17
2022-12-09T15:29:34.935Z,43.33
2022-12-09T15:32:39.742Z,44.65
2022-12-09T15:35:43.637Z,48.10
2022-12-09T15:39:29.000Z,54.53
2022-12-09T15:42:35.432Z,57.55
2022-12-09T15:45:42.242Z,52.33
2022-12-09T15:48:51.209Z,58.38
2022-12-09T15:51:56.335Z,75.68
2022-12-09T15:55:00.247Z,63.72
2022-12-09T15:58:06.235Z,65.03
2022-12-09T16:01:07.758Z,62.45
2022-12-09T16:04:10.131Z,60.63
2022-12-09T16:07:14.008Z,61.65
2022-12-09T16:10:17.581Z,57.20
2022-12-09T16:13:21.482Z,61.03
2022-12-09T16:17:05.469Z,60.83
2022-12-09T16:20:23.903Z,63.50
2022-12-09T16:23:27.018Z,65.53
2022-12-09T16:26:34.935Z,66.10
2022-12-09T16:29:37.228Z,62.55
2022-12-09T16:32:50.673Z,66.65
2022-12-09T16:36:04.895Z,63.65
2022-12-09T16:39:09.087Z,62.97
2022-12-09T16:42:29.151Z,60.08
2022-12-09T16:45:38.035Z,61.65
2022-12-09T16:48:39.172Z,61.17
2022-12-09T16:51:40.608Z,57.83
2022-12-09T16:54:45.658Z,57.75
2022-12-09T16:57:46.692Z,64.07
2022-12-09T17:00:49.234Z,63.05
2022-12-09T17:03:55.010Z,61.95
2022-12-09T17:06:56.601Z,65.07
2022-12-09T17:09:57.536Z,62.55
2022-12-09T17:12:58.814Z,73.22
2022-12-09T17:15:59.850Z,78.35
2022-12-09T17:19:01.067Z,67.93
2022-12-09T17:22:01.958Z,73.82
2022-12-09T17:25:04.329Z,66.35
2022-12-09T17:28:06.794Z,64.28
2022-12-09T17:31:11.009Z,65.28
2022-12-09T17:34:11.984Z,68.75
2022-12-09T17:37:12.897Z,65.72
2022-12-09T17:40:13.931Z,61.95
2022-12-09T17:43:15.058Z,64.65
2022-12-09T17:46:16.488Z,62.20
2022-12-09T17:49:19.574Z,56.90
2022-12-09T17:52:20.439Z,61.83
2022-12-09T17:55:22.101Z,68.30
2022-12-09T17:58:23.186Z,65.88
2022-12-09T18:01:25.690Z,70.43
2022-12-09T18:04:27.045Z,79.18
2022-12-09T18:07:28.106Z,74.07
2022-12-09T18:10:29.015Z,75.28
2022-12-09T18:13:30.307Z,73.97
2022-12-09T18:16:31.855Z,79.47
2022-12-09T18:19:35.359Z,69.28
2022-12-09T18:22:36.392Z,76.40
2022-12-09T18:25:41.595Z,72.75
2022-12-09T18:28:43.672Z,73.32
2022-12-09T18:31:45.886Z,66.70
2022-12-09T18:34:46.950Z,72.88
2022-12-09T18:37:48.091Z,65.55
2022-12-09T18:41:04.178Z,73.65
2022-12-09T18:44:07.955Z,141.67
2022-12-09T18:47:08.841Z,116.30
2022-12-09T18:50:10.973Z,101.63
2022-12-09T18:53:11.950Z,128.15
2022-12-09T18:56:13.951Z,88.55
2022-12-09T18:59:15.221Z,151.88
2022-12-09T19:02:17.072Z,147.25
2022-12-09T19:05:17.990Z,330.25
2022-12-09T19:08:18.918Z,98.75
2022-12-09T19:11:26.426Z,108.38
2022-12-09T19:17:28.589Z,261.77
2022-12-09T19:20:29.283Z,92.00
2022-12-09T19:23:36.062Z,101.90
2022-12-09T19:26:37.147Z,93.13
2022-12-09T19:29:39.583Z,98.65
2022-12-09T19:32:56.734Z,100.95
2022-12-09T19:35:57.602Z,93.63
2022-12-09T19:38:58.723Z,92.00
2022-12-09T19:42:01.106Z,93.18
2022-12-09T19:45:04.431Z,84.43
2022-12-09T19:48:07.972Z,98.22
2022-12-09T19:51:16.346Z,97.05
2022-12-09T19:54:18.018Z,86.97
2022-12-09T19:57:19.153Z,81.35
2022-12-09T20:00:20.643Z,92.13
2022-12-09T20:03:21.755Z,87.40
2022-12-09T20:06:23.299Z,86.82
2022-12-09T20:09:25.142Z,84.10
2022-12-09T20:12:26.838Z,86.95
2022-12-09T20:15:27.628Z,84.57
2022-12-09T20:18:28.347Z,95.75
2022-12-09T20:21:32.003Z,87.28
2022-12-09T20:24:32.682Z,86.88
2022-12-09T20:27:34.423Z,85.97
2022-12-09T20:30:35.062Z,82.10
2022-12-09T20:33:37.634Z,78.82
2022-12-09T20:36:42.193Z,73.50
2022-12-09T20:39:43.414Z,76.35
2022-12-09T20:42:44.807Z,67.53
2022-12-09T20:45:46.070Z,69.55
2022-12-09T20:48:48.787Z,75.53
2022-12-09T20:51:49.981Z,60.95
2022-12-09T20:54:51.402Z,68.63
2022-12-09T20:57:52.145Z,70.28
2022-12-09T21:00:52.955Z,63.53
2022-12-09T21:03:56.116Z,69.32
2022-12-09T21:06:57.658Z,65.65
2022-12-09T21:09:58.573Z,68.18
2022-12-09T21:12:59.444Z,65.72
2022-12-09T21:16:22.812Z,64.68
2022-12-09T21:19:27.563Z,65.15
2022-12-09T21:22:31.546Z,59.40
2022-12-09T21:25:32.863Z,64.50
2022-12-09T21:28:36.186Z,66.28
2022-12-09T21:31:40.993Z,64.43
2022-12-09T21:34:41.992Z,60.47
2022-12-09T21:37:43.912Z,52.25
2022-12-09T21:40:45.464Z,56.22
2022-12-09T21:43:47.650Z,59.67
2022-12-09T21:46:48.834Z,63.50
2022-12-09T21:49:49.604Z,57.70
2022-12-09T21:52:50.969Z,54.13
2022-12-09T21:55:53.580Z,56.72
2022-12-09T21:58:58.143Z,52.33
2022-12-09T22:02:00.912Z,56.75
2022-12-09T22:05:02.043Z,55.60
2022-12-09T22:08:04.457Z,55.92
2022-12-09T22:11:19.157Z,52.05
2022-12-09T22:14:19.853Z,55.22
2022-12-09T22:17:21.295Z,57.92
2022-12-09T22:21:00.590Z,58.22
2022-12-09T22:23:44.014Z,55.60
2022-12-09T22:26:45.961Z,55.65
2022-12-09T22:29:47.502Z,59.30
2022-12-09T22:32:50.976Z,57.60
2022-12-09T22:35:52.343Z,57.60
2022-12-09T22:38:54.368Z,55.50
2022-12-09T22:41:55.713Z,52.55
2022-12-09T22:44:57.746Z,58.50
2022-12-09T22:47:58.686Z,64.75
2022-12-09T22:51:13.438Z,115.82
2022-12-09T22:54:15.389Z,59.58
2022-12-09T22:57:16.485Z,61.97
2022-12-09T23:00:17.644Z,51.10
2022-12-09T23:03:18.856Z,56.95
2022-12-09T23:06:19.920Z,67.78
2022-12-09T23:09:25.265Z,65.95
2022-12-09T23:12:26.298Z,56.90
2022-12-09T23:15:27.301Z,60.95
2022-12-09T23:18:31.083Z,55.30
2022-12-09T23:21:38.097Z,63.72
2022-12-09T23:24:39.090Z,58.08
2022-12-09T23:27:39.887Z,59.72
2022-12-09T23:30:41.056Z,61.20
2022-12-09T23:33:45.580Z,62.75
2022-12-09T23:36:46.845Z,58.90
2022-12-09T23:39:48.981Z,69.10
2022-12-09T23:42:53.531Z,70.85
2022-12-09T23:45:54.358Z,61.92
2022-12-09T23:48:56.854Z,63.90
2022-12-09T23:51:57.590Z,60.50
2022-12-09T23:55:03.881Z,66.60
2022-12-09T23:58:05.442Z,59.30
